Time;durP1;ratioP1;P1;durP2;ratioP2;P2;SDS_P1;SDS_P2;PMS_P1;PMS_P2;Temp;Humidity;BMP_temperature;BMP_pressure;BME280_temperature;BME280_humidity;BME280_pressure;Samples;Min_cycle;Max_cycle;Signal;HPM_P1;HPM_P2
2022/01/10 00:02:10;;;;;;;;;;;;;;;5.95;69.93;100805.56;5147675;27;26838;-78
2022/01/10 00:04:35;;;;;;;;;;;;;;;5.88;70.32;100811.59;5158129;27;26819;-78
2022/01/10 00:07:00;;;;;;;;;;;;;;;5.80;70.37;100815.03;5155732;27;48750;-78
2022/01/10 00:09:25;;;;;;;;;;;;;;;5.73;69.65;100815.94;5147389;27;27124;-79
2022/01/10 00:11:50;;;;;;;;;;;;;;;5.67;70.44;100818.50;5141622;27;44221;-79
2022/01/10 00:14:16;;;;;;;;;;;;;;;5.63;69.60;100821.06;5142775;27;53098;-79
2022/01/10 00:16:41;;;;;;;;;;;;;;;5.57;69.99;100821.97;5147269;27;26869;-78
2022/01/10 00:19:06;;;;;;;;;;;;;;;5.53;69.85;100822.84;5153844;27;26881;-78
2022/01/10 00:21:31;;;;;;;;;;;;;;;5.47;70.19;100825.44;5152174;27;29574;-78
2022/01/10 00:23:57;;;;;;;;;;;;;;;5.41;70.29;100830.56;5151562;27;26896;-78
2022/01/10 00:26:23;;;;;;;;;;;;;;;5.33;69.80;100833.16;5150345;27;56102;-78
2022/01/10 00:28:48;;;;;;;;;;;;;;;5.27;70.33;100832.34;5149751;27;26851;-79
2022/01/10 00:31:13;;;;;;;;;;;;;;;5.18;70.81;100834.91;5155255;27;56405;-78
2022/01/10 00:33:38;;;;;;;;;;;;;;;5.14;69.81;100843.44;5154337;27;52221;-79
2022/01/10 00:36:04;;;;;;;;;;;;;;;5.09;70.72;100842.63;5150864;27;27069;-78
2022/01/10 00:38:29;;;;;;;;;;;;;;;5.07;70.46;100845.16;5149147;27;26807;-78
2022/01/10 00:40:55;;;;;;;;;;;;;;;5.05;70.11;100848.59;5149380;27;26870;-79
2022/01/10 00:43:30;;;;;;;;;;;;;;;5.01;69.95;100849.47;5146893;27;26966;-78
2022/01/10 00:45:56;;;;;;;;;;;;;;;4.97;69.86;100868.22;5145389;27;26961;-78
2022/01/10 00:48:21;;;;;;;;;;;;;;;4.93;70.18;100866.53;5144966;27;26854;-79
2022/01/10 00:50:46;;;;;;;;;;;;;;;4.89;69.98;100870.78;5145479;27;27700;-80
2022/01/10 00:53:11;;;;;;;;;;;;;;;4.87;69.93;100873.34;5145547;27;47704;-78
2022/01/10 00:55:38;;;;;;;;;;;;;;;4.84;69.95;100882.72;5145917;27;56981;-78
2022/01/10 00:58:03;;;;;;;;;;;;;;;4.80;70.36;100881.88;5148723;27;26836;-78
2022/01/10 01:00:28;;;;;;;;;;;;;;;4.78;70.42;100882.75;5147497;27;55172;-78
2022/01/10 01:02:53;;;;;;;;;;;;;;;4.75;69.62;100888.72;5147124;27;54949;-79
2022/01/10 01:05:21;;;;;;;;;;;;;;;4.71;70.30;100892.13;5148031;27;41323;-79
2022/01/10 01:07:46;;;;;;;;;;;;;;;4.67;70.45;100890.44;5147851;27;26916;-79
2022/01/10 01:15:23;;;;;;;;;;;;;;;4.59;70.09;100911.72;5143414;27;26892;-78
2022/01/10 01:18:11;;;;;;;;;;;;;;;4.56;69.70;100911.72;5147183;27;26934;-79
2022/01/10 01:25:49;;;;;;;;;;;;;;;4.44;70.11;100933.00;5148036;27;27213;-78
2022/01/10 01:28:14;;;;;;;;;;;;;;;4.42;70.51;100944.97;5147517;27;35002;-78
2022/01/10 01:30:42;;;;;;;;;;;;;;;4.39;71.24;100945.78;5146902;27;27527;-78
2022/01/10 01:33:07;;;;;;;;;;;;;;;4.39;70.81;100944.94;5147090;27;27022;-79
2022/01/10 01:35:35;;;;;;;;;;;;;;;4.38;70.69;100959.44;5146482;27;27831;-79
2022/01/10 01:38:00;;;;;;;;;;;;;;;4.36;70.53;100966.25;5146782;27;26819;-78
2022/01/10 01:40:28;;;;;;;;;;;;;;;4.36;70.66;100965.38;5146749;27;26814;-78
2022/01/10 01:42:55;;;;;;;;;;;;;;;4.34;70.62;100972.22;5146466;27;26943;-79
2022/01/10 01:45:34;;;;;;;;;;;;;;;4.33;70.94;100970.50;5145715;27;26952;-79
2022/01/10 01:47:59;;;;;;;;;;;;;;;4.32;70.58;100979.00;5145976;27;26458;-79
2022/01/10 01:50:24;;;;;;;;;;;;;;;4.31;70.69;100982.44;5144262;27;41865;-78
2022/01/10 01:52:49;;;;;;;;;;;;;;;4.30;70.48;100980.72;5143171;27;54393;-78
2022/01/10 01:55:14;;;;;;;;;;;;;;;4.19;70.48;100972.16;5143642;27;35423;-78
2022/01/10 01:57:40;;;;;;;;;;;;;;;4.25;70.25;100997.72;5142794;27;53951;-78
2022/01/10 02:00:06;;;;;;;;;;;;;;;4.22;70.55;100997.72;5144322;27;26931;-78
2022/01/10 02:02:31;;;;;;;;;;;;;;;4.18;70.28;100996.84;5143839;27;26803;-78
2022/01/10 02:04:57;;;;;;;;;;;;;;;4.16;70.60;101007.94;5145544;27;26807;-78
2022/01/10 02:07:23;;;;;;;;;;;;;;;4.13;70.50;101005.34;5145675;27;26938;-79
2022/01/10 02:09:48;;;;;;;;;;;;;;;4.12;70.87;101011.31;5144676;27;26794;-79
2022/01/10 02:12:13;;;;;;;;;;;;;;;4.11;70.90;101014.72;5144325;27;27004;-79
2022/01/10 02:14:41;;;;;;;;;;;;;;;4.10;71.10;101018.97;5145607;27;26813;-78
2022/01/10 02:17:06;;;;;;;;;;;;;;;4.07;71.06;101018.09;5145434;27;26895;-78
2022/01/10 02:19:31;;;;;;;;;;;;;;;4.07;70.27;101020.66;5150233;27;26809;-78
2022/01/10 02:21:57;;;;;;;;;;;;;;;4.06;70.35;101026.59;5156773;27;26391;-79
2022/01/10 02:24:23;;;;;;;;;;;;;;;4.05;70.64;101030.03;5149899;27;56562;-78
2022/01/10 02:26:49;;;;;;;;;;;;;;;4.02;70.32;101027.44;5157136;27;26895;-78
2022/01/10 02:29:14;;;;;;;;;;;;;;;4.01;70.84;101033.41;5147925;27;26906;-78
2022/01/10 02:31:40;;;;;;;;;;;;;;;4.00;70.65;101031.69;5148229;27;27031;-78
2022/01/10 02:34:05;;;;;;;;;;;;;;;3.97;70.83;101036.78;5148362;27;27720;-78
2022/01/10 02:36:32;;;;;;;;;;;;;;;3.95;70.66;101049.56;5156425;27;26932;-78
2022/01/10 02:38:59;;;;;;;;;;;;;;;3.92;70.38;101056.34;5148962;27;27094;-79
2022/01/10 02:41:25;;;;;;;;;;;;;;;3.87;70.44;101046.94;5148647;27;26888;-78
2022/01/10 02:43:51;;;;;;;;;;;;;;;3.88;70.48;101058.03;5147101;27;26749;-78
2022/01/10 02:46:17;;;;;;;;;;;;;;;3.88;71.04;101060.59;5145062;27;26880;-77
2022/01/10 02:48:42;;;;;;;;;;;;;;;3.86;70.59;101070.78;5143582;27;27510;-78
2022/01/10 02:51:07;;;;;;;;;;;;;;;3.84;70.69;101067.38;5142247;27;54209;-78
2022/01/10 02:53:32;;;;;;;;;;;;;;;3.82;70.30;101061.38;5142341;27;54248;-78
2022/01/10 02:55:58;;;;;;;;;;;;;;;3.82;70.74;101071.59;5143431;27;27015;-78
2022/01/10 02:58:23;;;;;;;;;;;;;;;3.83;70.81;101075.88;5143689;27;56827;-78
2022/01/10 03:00:48;;;;;;;;;;;;;;;3.80;71.17;101075.88;5143576;27;26880;-78
2022/01/10 03:03:13;;;;;;;;;;;;;;;3.78;70.71;101077.56;5123380;27;57575;-78
2022/01/10 03:05:38;;;;;;;;;;;;;;;3.79;71.16;101094.56;5143268;27;39442;-78
2022/01/10 03:08:04;;;;;;;;;;;;;;;3.78;71.04;101098.00;5142836;27;37015;-79
2022/01/10 03:10:30;;;;;;;;;;;;;;;3.76;70.95;101099.66;5144821;27;26809;-78
2022/01/10 03:12:55;;;;;;;;;;;;;;;3.76;70.71;101098.81;5145063;27;27771;-78
2022/01/10 03:15:20;;;;;;;;;;;;;;;3.74;70.62;101105.63;5145449;27;26900;-79
2022/01/10 03:17:45;;;;;;;;;;;;;;;3.74;70.21;101106.47;5144043;27;55826;-78
2022/01/10 03:20:11;;;;;;;;;;;;;;;3.74;70.58;101106.47;5146227;27;27476;-78
2022/01/10 03:22:36;;;;;;;;;;;;;;;3.71;70.55;101116.66;5143441;27;27469;-78
2022/01/10 03:25:02;;;;;;;;;;;;;;;3.67;71.05;101120.06;5147004;27;26784;-78
2022/01/10 03:27:28;;;;;;;;;;;;;;;3.38;70.57;101081.50;5146448;27;26757;-78
2022/01/10 03:29:53;;;;;;;;;;;;;;;3.62;70.67;101137.03;5145978;27;53699;-78
2022/01/10 03:32:19;;;;;;;;;;;;;;;3.61;70.52;101140.41;5146793;27;26985;-79
2022/01/10 03:34:45;;;;;;;;;;;;;;;3.60;71.16;101143.81;5147684;27;26924;-78
2022/01/10 03:37:11;;;;;;;;;;;;;;;3.57;70.92;101143.78;5146045;27;27599;-78
2022/01/10 03:39:36;;;;;;;;;;;;;;;3.58;70.74;101140.38;5146390;27;26871;-78
2022/01/10 03:42:01;;;;;;;;;;;;;;;3.58;70.37;101140.38;5146133;27;26900;-78
2022/01/10 03:44:27;;;;;;;;;;;;;;;3.57;71.04;101138.69;5146607;27;26700;-77
2022/01/10 03:46:52;;;;;;;;;;;;;;;3.55;70.80;101155.69;5146215;27;27063;-78
2022/01/10 03:49:17;;;;;;;;;;;;;;;3.54;70.48;101158.22;5146379;27;26891;-77
2022/01/10 03:51:42;;;;;;;;;;;;;;;3.51;70.82;101170.97;5146461;27;44851;-77
2022/01/10 03:54:07;;;;;;;;;;;;;;;3.49;70.68;101170.94;5145248;27;53965;-78
2022/01/10 03:56:33;;;;;;;;;;;;;;;3.48;70.98;101184.56;5146219;27;26784;-77
2022/01/10 03:58:58;;;;;;;;;;;;;;;3.47;70.64;101177.75;5146228;27;26783;-78
2022/01/10 04:01:23;;;;;;;;;;;;;;;3.44;71.09;101177.72;5146488;27;28372;-77
2022/01/10 04:03:49;;;;;;;;;;;;;;;3.43;70.93;101186.22;5146100;27;26878;-78
2022/01/10 04:06:14;;;;;;;;;;;;;;;3.43;71.10;101188.75;5145704;27;26950;-79
2022/01/10 04:08:39;;;;;;;;;;;;;;;3.43;70.69;101196.41;5145528;27;26975;-79
2022/01/10 04:11:05;;;;;;;;;;;;;;;3.42;70.67;101204.91;5145162;27;27073;-78
2022/01/10 04:13:30;;;;;;;;;;;;;;;3.40;70.90;101212.56;5145534;27;26961;-78
2022/01/10 04:15:56;;;;;;;;;;;;;;;3.40;70.83;101211.72;5145777;27;26864;-78
2022/01/10 04:18:21;;;;;;;;;;;;;;;3.40;71.21;101216.81;5145584;27;26990;-78
2022/01/10 04:20:46;;;;;;;;;;;;;;;3.39;71.17;101222.75;5145505;27;41497;-78
2022/01/10 04:23:12;;;;;;;;;;;;;;;3.37;70.95;101227.00;5145438;27;41926;-78
2022/01/10 04:25:37;;;;;;;;;;;;;;;3.34;71.19;101232.03;5145979;27;27529;-78
2022/01/10 04:28:02;;;;;;;;;;;;;;;3.30;71.44;101241.38;5145377;27;27102;-78
2022/01/10 04:30:28;;;;;;;;;;;;;;;3.29;70.70;101249.03;5146286;27;26959;-79
2022/01/10 04:32:53;;;;;;;;;;;;;;;3.28;71.26;101253.28;5146723;27;26886;-79
2022/01/10 04:35:18;;;;;;;;;;;;;;;3.27;71.45;101255.78;5147094;27;26874;-79
2022/01/10 04:37:44;;;;;;;;;;;;;;;3.27;71.14;101260.91;5147310;27;26802;-78
2022/01/10 04:40:09;;;;;;;;;;;;;;;3.28;71.09;101265.16;5146957;27;26717;-79
2022/01/10 04:42:35;;;;;;;;;;;;;;;3.29;71.27;101279.66;5147910;27;26904;-78
2022/01/10 04:45:01;;;;;;;;;;;;;;;3.29;71.21;101285.63;5146798;27;26718;-79
2022/01/10 04:47:26;;;;;;;;;;;;;;;3.28;71.19;101294.13;5146972;27;27021;-78
2022/01/10 04:52:26;;;;;;;;;;;;;;;3.27;70.93;101304.28;5155107;27;26501;-79
2022/01/10 04:54:51;;;;;;;;;;;;;;;3.25;70.91;101313.63;5150974;27;26818;-79
2022/01/10 04:57:16;;;;;;;;;;;;;;;3.24;71.02;101311.91;5129826;27;46131;-78
2022/01/10 04:59:41;;;;;;;;;;;;;;;3.22;70.91;101319.56;5148044;27;55981;-79
2022/01/10 05:02:07;;;;;;;;;;;;;;;3.21;70.71;101312.75;5147890;27;40450;-79
2022/01/10 05:04:32;;;;;;;;;;;;;;;3.21;70.89;101311.88;5147848;27;27604;-79
2022/01/10 05:06:58;;;;;;;;;;;;;;;3.20;70.98;101315.25;5148296;27;26803;-79
2022/01/10 05:09:23;;;;;;;;;;;;;;;3.20;71.33;101320.38;5146350;27;55016;-78
2022/01/10 05:11:48;;;;;;;;;;;;;;;3.18;70.53;101332.25;5146199;27;55071;-79
2022/01/10 05:14:13;;;;;;;;;;;;;;;3.16;70.96;101333.91;5147531;27;26523;-78
2022/01/10 05:16:40;;;;;;;;;;;;;;;3.14;71.14;101330.50;5146984;27;26838;-78
2022/01/10 05:19:05;;;;;;;;;;;;;;;3.12;71.07;101347.47;5146701;27;26959;-80
2022/01/10 05:21:30;;;;;;;;;;;;;;;3.11;71.11;101350.88;5147390;27;26917;-78
2022/01/10 05:23:56;;;;;;;;;;;;;;;3.10;71.45;101360.22;5146063;27;27577;-79
2022/01/10 05:26:21;;;;;;;;;;;;;;;3.10;71.28;101361.91;5145681;27;50255;-78
2022/01/10 05:28:46;;;;;;;;;;;;;;;3.10;70.96;101369.56;5144486;27;26821;-78
2022/01/10 05:31:11;;;;;;;;;;;;;;;3.11;71.39;101366.19;5145238;27;27050;-79
2022/01/10 05:33:36;;;;;;;;;;;;;;;3.10;70.86;101374.69;5145371;27;32684;-77
2022/01/10 05:36:02;;;;;;;;;;;;;;;3.10;71.34;101379.78;5144681;27;27057;-78
2022/01/10 05:38:27;;;;;;;;;;;;;;;3.10;71.57;101390.00;5144226;27;27913;-78
2022/01/10 05:40:52;;;;;;;;;;;;;;;3.09;71.58;101388.25;5145302;27;26980;-78
2022/01/10 05:43:18;;;;;;;;;;;;;;;3.08;71.71;101391.63;5145217;27;26860;-78
2022/01/10 05:45:43;;;;;;;;;;;;;;;3.09;71.53;101398.47;5144468;27;26948;-78
2022/01/10 05:48:12;;;;;;;;;;;;;;;3.09;71.48;101394.22;5142962;27;27341;-77
2022/01/10 05:50:41;;;;;;;;;;;;;;;3.09;71.37;101408.69;5144474;27;26767;-78
2022/01/10 05:53:07;;;;;;;;;;;;;;;3.10;71.35;101405.28;5145159;27;26844;-78
2022/01/10 05:55:32;;;;;;;;;;;;;;;3.10;71.57;101410.41;5145528;27;26979;-77
2022/01/10 05:57:57;;;;;;;;;;;;;;;3.11;71.32;101417.22;5144449;27;27669;-78
2022/01/10 06:00:23;;;;;;;;;;;;;;;3.11;71.29;101412.13;5143693;27;26409;-78
2022/01/10 06:02:48;;;;;;;;;;;;;;;3.13;71.33;101418.09;5143343;27;27004;-78
2022/01/10 06:05:13;;;;;;;;;;;;;;;3.14;71.20;101417.28;5145096;27;26869;-78
2022/01/10 06:07:39;;;;;;;;;;;;;;;3.16;71.47;101430.91;5142801;27;26841;-78
2022/01/10 06:10:05;;;;;;;;;;;;;;;3.16;71.19;101426.66;5142473;27;26968;-78
2022/01/10 06:12:30;;;;;;;;;;;;;;;3.18;71.55;101444.56;5143818;27;27993;-79
2022/01/10 06:14:55;;;;;;;;;;;;;;;3.18;71.37;101444.56;5142853;27;26771;-78
2022/01/10 06:17:20;;;;;;;;;;;;;;;3.17;71.26;101453.91;5142916;27;36115;-78
2022/01/10 06:19:45;;;;;;;;;;;;;;;3.17;71.36;101463.25;5142207;27;53245;-78
2022/01/10 06:22:10;;;;;;;;;;;;;;;3.15;71.41;101470.03;5146915;27;51431;-78
2022/01/10 06:24:36;;;;;;;;;;;;;;;3.13;71.76;101472.56;5151446;27;54130;-78
2022/01/10 06:27:01;;;;;;;;;;;;;;;3.11;71.73;101481.03;5142816;27;35978;-78
2022/01/10 06:29:26;;;;;;;;;;;;;;;3.09;71.39;101485.22;5143092;27;26906;-79
2022/01/10 06:31:51;;;;;;;;;;;;;;;3.06;71.41;101488.59;5141249;27;56206;-78
2022/01/10 06:34:18;;;;;;;;;;;;;;;3.05;71.44;101488.56;5142248;27;26747;-78
2022/01/10 06:36:43;;;;;;;;;;;;;;;3.03;71.32;101495.34;5141107;27;27600;-78
2022/01/10 06:39:08;;;;;;;;;;;;;;;3.03;71.29;101495.34;5140369;27;27147;-79
2022/01/10 06:41:33;;;;;;;;;;;;;;;3.03;71.43;101505.56;5140334;27;27059;-78
2022/01/10 06:43:59;;;;;;;;;;;;;;;3.05;71.23;101503.88;5140180;27;26975;-79
2022/01/10 06:46:24;;;;;;;;;;;;;;;3.04;71.73;101512.38;5139212;27;36380;-78
2022/01/10 06:48:49;;;;;;;;;;;;;;;3.04;70.87;101522.59;5138647;27;26941;-78
2022/01/10 06:51:14;;;;;;;;;;;;;;;3.05;71.30;101531.94;5138243;27;57237;-78
2022/01/10 06:53:39;;;;;;;;;;;;;;;3.05;71.25;101537.03;5136814;27;55136;-78
2022/01/10 06:56:04;;;;;;;;;;;;;;;3.05;71.25;101537.03;5132216;27;49608;-78
2022/01/10 06:58:30;;;;;;;;;;;;;;;3.06;71.35;101548.97;5134278;27;27200;-78
2022/01/10 07:00:55;;;;;;;;;;;;;;;3.05;71.88;101550.66;5132753;27;51692;-78
2022/01/10 07:03:20;;;;;;;;;;;;;;;3.06;71.42;101571.94;5126954;27;26952;-78
2022/01/10 07:05:45;;;;;;;;;;;;;;;3.07;71.19;101576.22;5125322;27;26946;-79
2022/01/10 07:08:11;;;;;;;;;;;;;;;3.06;71.22;101587.25;5116348;27;27390;-78
2022/01/10 07:10:36;;;;;;;;;;;;;;;3.10;72.22;101591.59;5113316;27;27399;-77
2022/01/10 07:13:01;;;;;;;;;;;;;;;3.14;71.60;101596.78;5112670;27;53343;-76
2022/01/10 07:15:27;;;;;;;;;;;;;;;3.17;72.45;101601.06;5100925;27;27646;-78
2022/01/10 07:17:52;;;;;;;;;;;;;;;3.20;72.04;101606.22;5096518;27;27225;-77
2022/01/10 07:20:17;;;;;;;;;;;;;;;3.26;71.99;101611.44;5091241;27;27405;-78
2022/01/10 07:22:43;;;;;;;;;;;;;;;3.30;71.80;101613.19;5085293;27;27446;-77
2022/01/10 07:25:08;;;;;;;;;;;;;;;3.34;72.62;101609.88;5079039;27;27353;-78
2022/01/10 07:27:34;;;;;;;;;;;;;;;3.35;72.36;101625.22;5086738;27;27342;-78
2022/01/10 07:30:00;;;;;;;;;;;;;;;3.41;71.73;101642.34;5092701;27;27713;-78
2022/01/10 07:32:29;;;;;;;;;;;;;;;3.43;71.76;101643.22;5090590;27;27200;-77
2022/01/10 07:34:54;;;;;;;;;;;;;;;3.44;71.99;101647.50;5096341;27;27482;-77
2022/01/10 07:37:20;;;;;;;;;;;;;;;3.46;71.67;101639.84;5099074;27;27302;-78
2022/01/10 07:39:45;;;;;;;;;;;;;;;3.47;72.08;101657.78;5101244;27;27564;-78
2022/01/10 07:42:10;;;;;;;;;;;;;;;3.48;72.03;101659.50;5106127;27;27367;-78
2022/01/10 07:44:36;;;;;;;;;;;;;;;3.50;72.09;101662.94;5108519;27;57435;-78
2022/01/10 07:47:02;;;;;;;;;;;;;;;3.51;71.97;101669.75;5087796;27;27365;-78
2022/01/10 07:49:27;;;;;;;;;;;;;;;3.52;72.32;101666.38;5106208;27;27225;-77
2022/01/10 07:51:57;;;;;;;;;;;;;;;3.51;71.51;101667.22;5107531;27;27327;-77
2022/01/10 07:54:22;;;;;;;;;;;;;;;3.49;72.03;101671.41;5108949;27;27435;-77
2022/01/10 07:56:47;;;;;;;;;;;;;;;3.45;72.22;101672.19;5104263;27;54017;-78
2022/01/10 07:59:13;;;;;;;;;;;;;;;3.43;72.03;101681.53;5098492;27;27331;-78
2022/01/10 08:01:38;;;;;;;;;;;;;;;3.40;72.15;101686.59;5105003;27;27345;-78
2022/01/10 08:04:03;;;;;;;;;;;;;;;3.39;72.13;101690.81;5115008;27;51256;-78
2022/01/10 08:06:28;;;;;;;;;;;;;;;3.39;72.63;101692.50;5095337;27;27238;-77
2022/01/10 08:08:54;;;;;;;;;;;;;;;3.43;72.82;101701.97;5114003;27;27318;-78
2022/01/10 08:11:19;;;;;;;;;;;;;;;3.46;72.22;101701.13;5113785;27;28731;-79
2022/01/10 08:13:44;;;;;;;;;;;;;;;3.48;72.71;101710.56;5105379;27;32152;-78
2022/01/10 08:16:09;;;;;;;;;;;;;;;3.49;71.94;101717.38;5098500;27;27350;-78
2022/01/10 08:18:35;;;;;;;;;;;;;;;3.45;72.07;101720.69;5093016;27;32415;-78
2022/01/10 08:21:01;;;;;;;;;;;;;;;3.43;72.48;101717.28;5086352;27;27178;-77
2022/01/10 08:23:26;;;;;;;;;;;;;;;3.47;72.26;101739.47;5080318;27;27487;-78
2022/01/10 08:25:51;;;;;;;;;;;;;;;3.49;72.00;101742.91;5046594;27;27353;-78
2022/01/10 08:28:17;;;;;;;;;;;;;;;3.46;71.53;101747.97;5046027;27;57228;-78
2022/01/10 08:30:42;;;;;;;;;;;;;;;3.35;71.65;101754.56;5068827;27;27506;-78
2022/01/10 08:33:07;;;;;;;;;;;;;;;3.33;71.99;101766.44;5085535;27;28020;-78
2022/01/10 08:35:33;;;;;;;;;;;;;;;3.30;71.97;101771.47;5097199;27;27253;-77
2022/01/10 08:37:58;;;;;;;;;;;;;;;3.27;72.05;101771.41;5095167;27;27102;-78
2022/01/10 08:40:24;;;;;;;;;;;;;;;3.23;71.74;101769.63;5092072;27;47339;-78
2022/01/10 08:42:49;;;;;;;;;;;;;;;3.17;72.07;101769.50;5092190;27;27249;-78
2022/01/10 08:45:14;;;;;;;;;;;;;;;3.16;71.76;101783.09;5095125;27;47908;-78
2022/01/10 08:47:39;;;;;;;;;;;;;;;3.13;71.99;101780.47;5099106;27;27371;-78
2022/01/10 08:50:06;;;;;;;;;;;;;;;3.15;71.86;101791.59;5089549;27;26925;-78
2022/01/10 08:52:31;;;;;;;;;;;;;;;3.21;72.52;101791.72;5090244;27;27246;-79
2022/01/10 08:54:58;;;;;;;;;;;;;;;3.24;72.41;101800.31;5089486;27;27235;-78
2022/01/10 08:57:24;;;;;;;;;;;;;;;3.26;72.41;101801.19;5089579;27;27217;-78
2022/01/10 08:59:50;;;;;;;;;;;;;;;3.28;72.27;101809.75;5100020;27;27438;-78
2022/01/10 09:02:15;;;;;;;;;;;;;;;3.32;72.09;101810.69;5084668;27;27783;-79
2022/01/10 09:04:40;;;;;;;;;;;;;;;3.35;72.61;101810.72;5083480;27;27300;-79
2022/01/10 09:07:08;;;;;;;;;;;;;;;3.37;72.18;101812.47;5076845;27;27051;-79
2022/01/10 09:09:34;;;;;;;;;;;;;;;3.40;72.13;101814.25;5046995;27;27168;-78
2022/01/10 09:11:59;;;;;;;;;;;;;;;3.39;72.07;101817.63;5088382;27;28243;-79
2022/01/10 09:14:25;;;;;;;;;;;;;;;3.41;72.50;101826.19;5082680;27;27333;-79
2022/01/10 09:16:50;;;;;;;;;;;;;;;3.40;72.27;101834.69;5086276;27;27552;-79
2022/01/10 09:19:16;;;;;;;;;;;;;;;3.40;72.43;101832.13;5088370;27;29299;-79
2022/01/10 09:21:41;;;;;;;;;;;;;;;3.38;72.18;101838.88;5086197;27;27444;-79
2022/01/10 09:24:07;;;;;;;;;;;;;;;3.38;71.87;101841.44;5077502;27;27259;-79
2022/01/10 09:26:32;;;;;;;;;;;;;;;3.40;72.52;101850.00;5054072;27;27444;-78
2022/01/10 09:28:57;;;;;;;;;;;;;;;3.46;72.44;101865.44;5041530;27;27240;-78
2022/01/10 09:31:22;;;;;;;;;;;;;;;3.49;72.71;101875.72;5044262;27;27243;-78
2022/01/10 09:33:53;;;;;;;;;;;;;;;3.56;72.78;101882.66;5049560;27;27564;-78
2022/01/10 09:36:18;;;;;;;;;;;;;;;3.65;72.49;101882.88;5045839;27;27304;-77
2022/01/10 09:38:44;;;;;;;;;;;;;;;3.69;72.67;101882.09;5046611;27;27238;-77
2022/01/10 09:41:09;;;;;;;;;;;;;;;3.80;72.74;101883.19;5052189;27;27881;-77
2022/01/10 09:43:34;;;;;;;;;;;;;;;3.89;72.92;101888.47;5056316;27;27463;-78
2022/01/10 09:46:00;;;;;;;;;;;;;;;3.92;72.69;101881.69;5045018;27;27235;-77
2022/01/10 09:48:25;;;;;;;;;;;;;;;4.06;72.31;101895.59;5055855;27;27319;-78
2022/01/10 09:50:50;;;;;;;;;;;;;;;4.14;72.87;101901.72;5075446;27;27150;-79
2022/01/10 09:53:17;;;;;;;;;;;;;;;4.20;72.95;101905.25;5088314;27;34731;-80
2022/01/10 09:55:42;;;;;;;;;;;;;;;4.27;72.41;101906.25;5089957;27;27653;-79
2022/01/10 09:58:09;;;;;;;;;;;;;;;4.32;72.32;101914.84;5083083;27;27165;-78
2022/01/10 10:00:34;;;;;;;;;;;;;;;4.36;72.99;101916.63;5087423;27;27811;-78
2022/01/10 10:02:59;;;;;;;;;;;;;;;4.33;72.62;101912.31;5071613;27;27213;-78
2022/01/10 10:05:29;;;;;;;;;;;;;;;4.38;72.82;101920.94;5092612;27;28214;-79
2022/01/10 10:07:54;;;;;;;;;;;;;;;4.37;72.69;101931.13;5095061;27;27196;-79
2022/01/10 10:10:20;;;;;;;;;;;;;;;4.36;72.70;101921.72;5094363;27;27161;-79
2022/01/10 10:12:49;;;;;;;;;;;;;;;4.36;72.57;101926.84;5095735;27;27273;-79
2022/01/10 10:15:17;;;;;;;;;;;;;;;4.38;72.08;101928.63;5098797;27;27400;-80
2022/01/10 10:17:43;;;;;;;;;;;;;;;4.42;72.72;101932.09;5103981;27;27214;-79
2022/01/10 10:26:23;;;;;;;;;;;;;;;4.54;72.70;101942.53;5152147;27;26459;-80
2022/01/10 10:31:53;;;;;;;;;;;;;;;4.72;73.10;101963.31;5149013;27;27218;-79
2022/01/10 10:34:20;;;;;;;;;;;;;;;4.82;72.99;101965.22;5111058;27;27008;-78
2022/01/10 10:36:57;;;;;;;;;;;;;;;4.91;72.81;101968.78;5116546;27;27846;-79
2022/01/10 10:39:24;;;;;;;;;;;;;;;4.98;72.58;101971.44;5120946;27;27196;-79
2022/01/10 10:41:55;;;;;;;;;;;;;;;5.02;71.95;101973.22;5113730;27;27328;-78
2022/01/10 10:44:21;;;;;;;;;;;;;;;5.01;72.57;101980.88;5106521;27;27107;-78
2022/01/10 10:46:47;;;;;;;;;;;;;;;4.98;71.85;101975.72;5070228;27;27819;-79
2022/01/10 10:49:14;;;;;;;;;;;;;;;5.04;72.27;101986.91;5064429;27;27255;-78
2022/01/10 10:51:39;;;;;;;;;;;;;;;5.09;72.61;101974.19;5081655;27;27270;-77
2022/01/10 10:54:13;;;;;;;;;;;;;;;5.17;72.85;101977.72;5091941;27;55765;-78
2022/01/10 10:56:39;;;;;;;;;;;;;;;5.24;72.04;101989.78;5093210;27;26966;-78
2022/01/10 10:59:06;;;;;;;;;;;;;;;5.28;72.70;101994.13;5097071;27;27520;-77
2022/01/10 11:01:31;;;;;;;;;;;;;;;5.35;72.73;101998.50;5102780;27;27464;-78
2022/01/10 11:03:56;;;;;;;;;;;;;;;5.41;72.73;102003.72;5102138;27;27204;-78
2022/01/10 11:06:22;;;;;;;;;;;;;;;5.48;73.07;102000.41;5101920;27;47640;-78
2022/01/10 11:08:49;;;;;;;;;;;;;;;5.56;73.36;102009.06;5098073;27;27285;-78
2022/01/10 11:11:15;;;;;;;;;;;;;;;5.57;72.36;102010.81;5095281;27;27398;-78
2022/01/10 11:13:41;;;;;;;;;;;;;;;5.51;71.89;102010.69;5087792;27;27241;-77
2022/01/10 11:16:07;;;;;;;;;;;;;;;5.47;72.32;102014.06;5084381;27;27166;-78
2022/01/10 11:18:32;;;;;;;;;;;;;;;5.43;72.29;102020.00;5086987;27;26944;-78
2022/01/10 11:20:58;;;;;;;;;;;;;;;5.38;71.47;102018.19;5085168;27;35278;-78
2022/01/10 11:23:23;;;;;;;;;;;;;;;5.28;71.05;102022.31;5086517;27;27355;-78
2022/01/10 11:25:48;;;;;;;;;;;;;;;5.17;71.24;102021.25;5085321;27;27318;-78
2022/01/10 11:28:24;;;;;;;;;;;;;;;5.16;71.55;102032.34;5085723;27;27240;-78
2022/01/10 11:30:51;;;;;;;;;;;;;;;5.21;72.05;102040.97;5086989;27;27803;-78
2022/01/10 11:33:21;;;;;;;;;;;;;;;5.28;72.41;102042.78;5083992;27;27140;-78
2022/01/10 11:35:50;;;;;;;;;;;;;;;5.35;72.05;102052.31;5088243;27;27807;-77
2022/01/10 11:38:15;;;;;;;;;;;;;;;5.33;71.91;102051.41;5073584;27;27266;-78
2022/01/10 11:40:41;;;;;;;;;;;;;;;5.31;71.43;102058.22;5092409;27;27618;-77
2022/01/10 11:43:06;;;;;;;;;;;;;;;5.31;71.64;102047.97;5071449;27;27280;-78
2022/01/10 11:45:40;;;;;;;;;;;;;;;5.38;72.42;102054.91;5085855;27;27227;-78
2022/01/10 11:48:10;;;;;;;;;;;;;;;5.44;72.02;102055.00;5065683;27;27299;-77
2022/01/10 11:50:40;;;;;;;;;;;;;;;5.51;72.75;102056.81;5063437;27;27219;-79
2022/01/10 11:53:05;;;;;;;;;;;;;;;5.58;71.79;102053.53;5060697;27;27497;-77
2022/01/10 11:55:31;;;;;;;;;;;;;;;5.66;72.73;102054.50;5068719;27;55836;-78
2022/01/10 11:58:16;;;;;;;;;;;;;;;5.65;72.06;102060.47;5076756;27;27173;-78
2022/01/10 12:00:41;;;;;;;;;;;;;;;5.60;72.33;102054.41;5074094;27;27659;-78
2022/01/10 12:03:07;;;;;;;;;;;;;;;5.66;71.90;102072.44;5080731;27;26992;-77
2022/01/10 12:05:32;;;;;;;;;;;;;;;5.67;71.82;102063.03;5073242;27;27607;-78
2022/01/10 12:07:57;;;;;;;;;;;;;;;5.71;71.32;102078.50;5071566;27;26971;-78
2022/01/10 12:10:22;;;;;;;;;;;;;;;5.69;71.35;102082.75;5087804;27;27970;-79
2022/01/10 12:12:51;;;;;;;;;;;;;;;5.69;71.58;102087.88;5092839;27;27364;-78
2022/01/10 12:15:16;;;;;;;;;;;;;;;5.66;71.73;102092.09;5100089;27;28038;-78
2022/01/10 12:17:41;;;;;;;;;;;;;;;5.64;71.26;102094.63;5105895;27;38938;-78
2022/01/10 12:20:08;;;;;;;;;;;;;;;5.64;71.02;102104.00;5105431;27;27955;-79
2022/01/10 12:22:33;;;;;;;;;;;;;;;5.64;71.44;102110.00;5109653;27;27071;-79
2022/01/10 12:24:58;;;;;;;;;;;;;;;5.69;72.49;102095.56;5124558;27;27704;-79
2022/01/10 12:27:24;;;;;;;;;;;;;;;5.76;71.48;102107.63;5113546;27;54781;-78
2022/01/10 12:29:49;;;;;;;;;;;;;;;5.82;72.51;102105.16;5123335;27;26778;-79
2022/01/10 12:32:14;;;;;;;;;;;;;;;5.94;72.16;102104.50;5116988;27;27294;-79
2022/01/10 12:34:41;;;;;;;;;;;;;;;6.00;71.91;102103.75;5117340;27;27302;-79
2022/01/10 12:37:06;;;;;;;;;;;;;;;6.00;71.29;102112.28;5120120;27;27050;-79
2022/01/10 12:39:35;;;;;;;;;;;;;;;6.05;71.37;102122.63;5122071;27;45557;-78
2022/01/10 12:42:00;;;;;;;;;;;;;;;6.12;71.63;102124.44;5127692;27;26866;-78
2022/01/10 12:44:26;;;;;;;;;;;;;;;6.20;71.60;102127.97;5126074;27;27743;-79
2022/01/10 12:46:52;;;;;;;;;;;;;;;6.23;71.73;102128.88;5125999;27;27463;-79
2022/01/10 12:49:17;;;;;;;;;;;;;;;6.30;72.34;102134.94;5127729;27;27203;-78
2022/01/10 12:51:47;;;;;;;;;;;;;;;6.33;71.29;102135.00;5124667;27;27255;-80
2022/01/10 12:54:12;;;;;;;;;;;;;;;6.37;71.70;102141.91;5120530;27;27313;-78
2022/01/10 12:56:37;;;;;;;;;;;;;;;6.41;71.97;102135.13;5107592;27;27309;-78
2022/01/10 12:59:03;;;;;;;;;;;;;;;6.42;71.62;102147.94;5109560;27;27512;-79
2022/01/10 13:01:28;;;;;;;;;;;;;;;6.43;71.22;102157.38;5101797;27;27208;-79
2022/01/10 13:03:57;;;;;;;;;;;;;;;6.48;71.43;102145.47;5095980;27;36710;-78